Faro Airport Faro PT
ICAO: LPFR
IATA: FAO
Category: Large
Scheduled Services: Yes

Elevation: 24 ft
TransAlt. 4000 ft.

Airport Communications:
APP:119.4
ATIS:124.2
GND:118.575
TWR:118.2

LPFR Zoom In..

If you have problems with the map follow the link
https://www.worldairports.se/pages/airport.php?
ICAO=LPFR

Runways:

(A) RW 10 length 8169 ft width 148 ft
---- / hdg 104

(B) RW 28 length 8169 ft width 148 ft
ILS 109.50 / hdg 284

Location; LPFR
Day. 18 / Time. 22.00 Zulu
* QNH: 1020
* Temperature: 13° c. 55.4°f.
* Wind from: 300° Speed 04 kn.
Dewpoint: 08° c.
Visibility: 10 km or more.
Clouds: Broken 3000 ft.

LPFR 182200Z 30004KT 270V330 9999 BKN030 13/08 Q1020


Wind From 300°
Speed 04 kn.

 
 
jpsmedia.com for Web Design worldairports.se 2019   terms of use